sensor_id;sensor_type;location;lat;lon;timestamp;pressure;altitude;pressure_sealevel;temperature;humidity
75166;BME280;63747;48.042;10.088;2023-05-15T00:01:54;94778.41;;;9.57;69.74
75166;BME280;63747;48.042;10.088;2023-05-15T00:04:55;94775.56;;;9.58;69.76
75166;BME280;63747;48.042;10.088;2023-05-15T00:07:56;94773.25;;;9.55;69.55
75166;BME280;63747;48.042;10.088;2023-05-15T00:10:56;94762.75;;;9.47;69.88
75166;BME280;63747;48.042;10.088;2023-05-15T00:13:57;94770.75;;;9.39;69.90
75166;BME280;63747;48.042;10.088;2023-05-15T00:16:57;94763.19;;;9.27;70.49
75166;BME280;63747;48.042;10.088;2023-05-15T00:19:58;94761.09;;;9.23;70.65
75166;BME280;63747;48.042;10.088;2023-05-15T00:22:59;94756.13;;;9.20;70.75
75166;BME280;63747;48.042;10.088;2023-05-15T00:25:59;94764.06;;;9.20;70.79
75166;BME280;63747;48.042;10.088;2023-05-15T00:29:00;94763.44;;;9.18;70.92
75166;BME280;63747;48.042;10.088;2023-05-15T00:32:00;94764.88;;;9.20;71.19
75166;BME280;63747;48.042;10.088;2023-05-15T00:35:01;94759.03;;;9.33;70.94
75166;BME280;63747;48.042;10.088;2023-05-15T00:38:01;94762.44;;;9.42;70.72
75166;BME280;63747;48.042;10.088;2023-05-15T00:41:02;94755.47;;;9.49;70.36
75166;BME280;63747;48.042;10.088;2023-05-15T00:44:03;94760.28;;;9.45;70.18
75166;BME280;63747;48.042;10.088;2023-05-15T00:47:05;94754.34;;;9.43;70.33
75166;BME280;63747;48.042;10.088;2023-05-15T00:50:09;94752.22;;;9.39;70.31
75166;BME280;63747;48.042;10.088;2023-05-15T00:53:10;94751.41;;;9.38;70.10
75166;BME280;63747;48.042;10.088;2023-05-15T00:56:11;94751.41;;;9.38;70.02
75166;BME280;63747;48.042;10.088;2023-05-15T00:59:11;94750.06;;;9.42;70.05
75166;BME280;63747;48.042;10.088;2023-05-15T01:02:13;94750.06;;;9.42;70.13
75166;BME280;63747;48.042;10.088;2023-05-15T01:05:14;94750.59;;;9.38;70.22
75166;BME280;63747;48.042;10.088;2023-05-15T01:08:18;94752.53;;;9.44;70.19
75166;BME280;63747;48.042;10.088;2023-05-15T01:11:19;94744.41;;;9.45;70.07
75166;BME280;63747;48.042;10.088;2023-05-15T01:14:20;94744.81;;;9.34;70.38
75166;BME280;63747;48.042;10.088;2023-05-15T01:17:21;94741.53;;;9.32;70.58
75166;BME280;63747;48.042;10.088;2023-05-15T01:20:21;94746.16;;;9.30;70.47
75166;BME280;63747;48.042;10.088;2023-05-15T01:23:32;94747.19;;;9.21;70.82
75166;BME280;63747;48.042;10.088;2023-05-15T01:30:03;94740.16;;;9.13;71.09
75166;BME280;63747;48.042;10.088;2023-05-15T01:33:12;94736.69;;;9.13;71.19
75166;BME280;63747;48.042;10.088;2023-05-15T01:36:23;94732.75;;;9.09;71.23
75166;BME280;63747;48.042;10.088;2023-05-15T01:39:26;94732.47;;;9.04;71.31
75166;BME280;63747;48.042;10.088;2023-05-15T01:42:32;94733.97;;;8.98;71.51
75166;BME280;63747;48.042;10.088;2023-05-15T01:45:33;94725.75;;;8.93;71.60
75166;BME280;63747;48.042;10.088;2023-05-15T01:48:35;94729.91;;;8.87;71.64
75166;BME280;63747;48.042;10.088;2023-05-15T01:51:36;94731.78;;;8.79;71.99
75166;BME280;63747;48.042;10.088;2023-05-15T01:54:37;94736.97;;;8.64;72.82
75166;BME280;63747;48.042;10.088;2023-05-15T01:57:38;94728.56;;;8.60;73.12
75166;BME280;63747;48.042;10.088;2023-05-15T02:00:40;94738.19;;;8.53;73.46
75166;BME280;63747;48.042;10.088;2023-05-15T02:03:41;94729.78;;;8.50;73.71
75166;BME280;63747;48.042;10.088;2023-05-15T02:06:43;94729.16;;;8.48;73.77
75166;BME280;63747;48.042;10.088;2023-05-15T02:09:43;94724.69;;;8.48;73.75
75166;BME280;63747;48.042;10.088;2023-05-15T02:12:44;94732.13;;;8.44;73.76
75166;BME280;63747;48.042;10.088;2023-05-15T02:15:45;94733.44;;;8.40;73.92
75166;BME280;63747;48.042;10.088;2023-05-15T02:18:46;94741.72;;;8.37;74.10
75166;BME280;63747;48.042;10.088;2023-05-15T02:21:47;94738.44;;;8.35;73.93
75166;BME280;63747;48.042;10.088;2023-05-15T02:24:48;94745.03;;;8.31;74.34
75166;BME280;63747;48.042;10.088;2023-05-15T02:27:54;94739.28;;;8.28;74.34
75166;BME280;63747;48.042;10.088;2023-05-15T02:31:00;94738.13;;;8.30;74.18
75166;BME280;63747;48.042;10.088;2023-05-15T02:34:16;94734.63;;;8.38;73.97
75166;BME280;63747;48.042;10.088;2023-05-15T02:37:19;94735.63;;;8.37;73.98
75166;BME280;63747;48.042;10.088;2023-05-15T02:40:23;94727.00;;;8.43;73.71
75166;BME280;63747;48.042;10.088;2023-05-15T02:43:24;94726.38;;;8.41;73.68
75166;BME280;63747;48.042;10.088;2023-05-15T02:46:25;94723.38;;;8.44;73.74
75166;BME280;63747;48.042;10.088;2023-05-15T02:49:26;94722.19;;;8.47;73.63
75166;BME280;63747;48.042;10.088;2023-05-15T02:52:27;94715.09;;;8.47;73.50
75166;BME280;63747;48.042;10.088;2023-05-15T02:55:27;94716.44;;;8.43;73.49
75166;BME280;63747;48.042;10.088;2023-05-15T02:58:28;94716.31;;;8.36;73.60
75166;BME280;63747;48.042;10.088;2023-05-15T03:01:29;94721.63;;;8.28;73.96
75166;BME280;63747;48.042;10.088;2023-05-15T03:04:29;94725.56;;;8.32;73.97
75166;BME280;63747;48.042;10.088;2023-05-15T03:07:30;94716.16;;;8.30;74.11
75166;BME280;63747;48.042;10.088;2023-05-15T03:10:30;94713.34;;;8.31;73.97
75166;BME280;63747;48.042;10.088;2023-05-15T03:13:31;94722.63;;;8.27;74.11
75166;BME280;63747;48.042;10.088;2023-05-15T03:16:31;94713.53;;;8.30;73.90
75166;BME280;63747;48.042;10.088;2023-05-15T03:19:32;94719.63;;;8.30;73.66
75166;BME280;63747;48.042;10.088;2023-05-15T03:22:33;94717.34;;;8.27;73.79
75166;BME280;63747;48.042;10.088;2023-05-15T03:25:33;94718.66;;;8.23;73.79
75166;BME280;63747;48.042;10.088;2023-05-15T03:28:34;94722.50;;;8.21;73.81
75166;BME280;63747;48.042;10.088;2023-05-15T03:31:34;94726.25;;;8.26;73.91
75166;BME280;63747;48.042;10.088;2023-05-15T03:34:35;94722.75;;;8.34;73.72
75166;BME280;63747;48.042;10.088;2023-05-15T03:37:35;94730.50;;;8.35;73.49
75166;BME280;63747;48.042;10.088;2023-05-15T03:40:39;94726.19;;;8.42;73.30
75166;BME280;63747;48.042;10.088;2023-05-15T03:43:39;94728.28;;;8.47;73.08
75166;BME280;63747;48.042;10.088;2023-05-15T03:46:40;94723.22;;;8.37;73.25
75166;BME280;63747;48.042;10.088;2023-05-15T03:49:41;94725.88;;;8.37;73.33
75166;BME280;63747;48.042;10.088;2023-05-15T03:52:41;94722.41;;;8.37;73.28
75166;BME280;63747;48.042;10.088;2023-05-15T03:55:42;94720.78;;;8.36;73.39
75166;BME280;63747;48.042;10.088;2023-05-15T03:58:43;94716.50;;;8.35;73.27
75166;BME280;63747;48.042;10.088;2023-05-15T04:01:43;94713.34;;;8.31;73.21
75166;BME280;63747;48.042;10.088;2023-05-15T04:04:44;94710.88;;;8.30;73.34
75166;BME280;63747;48.042;10.088;2023-05-15T04:07:44;94710.06;;;8.29;73.26
75166;BME280;63747;48.042;10.088;2023-05-15T04:10:45;94706.94;;;8.26;73.32
75166;BME280;63747;48.042;10.088;2023-05-15T04:13:45;94712.59;;;8.14;73.89
75166;BME280;63747;48.042;10.088;2023-05-15T04:16:46;94707.47;;;8.13;74.05
75166;BME280;63747;48.042;10.088;2023-05-15T04:19:46;94709.16;;;8.06;74.48
75166;BME280;63747;48.042;10.088;2023-05-15T04:22:47;94709.50;;;8.03;74.84
75166;BME280;63747;48.042;10.088;2023-05-15T04:25:47;94711.16;;;8.04;74.91
75166;BME280;63747;48.042;10.088;2023-05-15T04:28:48;94716.78;;;8.01;75.25
75166;BME280;63747;48.042;10.088;2023-05-15T04:31:48;94708.84;;;8.01;75.25
75166;BME280;63747;48.042;10.088;2023-05-15T04:34:49;94710.81;;;7.99;75.56
75166;BME280;63747;48.042;10.088;2023-05-15T04:37:49;94707.38;;;7.98;75.47
75166;BME280;63747;48.042;10.088;2023-05-15T04:40:50;94713.31;;;8.00;75.69
75166;BME280;63747;48.042;10.088;2023-05-15T04:43:50;94713.47;;;7.99;75.83
75166;BME280;63747;48.042;10.088;2023-05-15T04:49:43;94717.75;;;8.08;75.88
75166;BME280;63747;48.042;10.088;2023-05-15T04:52:44;94722.81;;;8.18;75.65
75166;BME280;63747;48.042;10.088;2023-05-15T04:55:44;94734.69;;;8.22;75.82
75166;BME280;63747;48.042;10.088;2023-05-15T04:58:45;94739.75;;;8.31;75.64
75166;BME280;63747;48.042;10.088;2023-05-15T05:01:45;94744.00;;;8.49;75.24
75166;BME280;63747;48.042;10.088;2023-05-15T05:04:46;94739.97;;;8.61;74.80
75166;BME280;63747;48.042;10.088;2023-05-15T05:07:46;94741.06;;;8.75;74.43
75166;BME280;63747;48.042;10.088;2023-05-15T05:10:47;94739.38;;;8.82;74.13
75166;BME280;63747;48.042;10.088;2023-05-15T05:13:48;94748.06;;;8.90;74.04
75166;BME280;63747;48.042;10.088;2023-05-15T05:16:48;94740.22;;;9.05;73.93
75166;BME280;63747;48.042;10.088;2023-05-15T05:19:49;94738.88;;;9.09;73.68
75166;BME280;63747;48.042;10.088;2023-05-15T05:22:49;94746.38;;;9.20;73.61
75166;BME280;63747;48.042;10.088;2023-05-15T05:25:50;94749.66;;;9.31;73.31
75166;BME280;63747;48.042;10.088;2023-05-15T05:28:51;94749.97;;;9.36;73.14
75166;BME280;63747;48.042;10.088;2023-05-15T05:31:51;94759.53;;;9.37;73.05
75166;BME280;63747;48.042;10.088;2023-05-15T05:34:52;94752.72;;;9.42;73.07
75166;BME280;63747;48.042;10.088;2023-05-15T05:37:52;94760.06;;;9.32;73.17
75166;BME280;63747;48.042;10.088;2023-05-15T05:40:53;94763.72;;;9.23;73.42
75166;BME280;63747;48.042;10.088;2023-05-15T05:43:53;94764.75;;;9.14;73.54
75166;BME280;63747;48.042;10.088;2023-05-15T05:46:54;94764.44;;;9.17;73.65
75166;BME280;63747;48.042;10.088;2023-05-15T05:49:54;94762.72;;;9.24;73.38
75166;BME280;63747;48.042;10.088;2023-05-15T05:52:55;94769.97;;;9.30;73.35
75166;BME280;63747;48.042;10.088;2023-05-15T05:55:56;94771.56;;;9.39;73.12
75166;BME280;63747;48.042;10.088;2023-05-15T05:58:56;94761.75;;;9.48;72.89
75166;BME280;63747;48.042;10.088;2023-05-15T06:01:58;94765.31;;;9.55;72.73
75166;BME280;63747;48.042;10.088;2023-05-15T06:04:59;94755.31;;;9.65;72.81
75166;BME280;63747;48.042;10.088;2023-05-15T06:07:59;94758.19;;;9.78;72.36
75166;BME280;63747;48.042;10.088;2023-05-15T06:11:03;94757.19;;;9.79;72.28
75166;BME280;63747;48.042;10.088;2023-05-15T06:14:04;94763.09;;;9.82;72.60
75166;BME280;63747;48.042;10.088;2023-05-15T06:17:07;94761.38;;;9.89;72.41
75166;BME280;63747;48.042;10.088;2023-05-15T06:20:07;94762.59;;;10.01;72.38
75166;BME280;63747;48.042;10.088;2023-05-15T06:23:08;94764.25;;;10.02;72.36
75166;BME280;63747;48.042;10.088;2023-05-15T06:26:09;94762.34;;;10.11;72.17
75166;BME280;63747;48.042;10.088;2023-05-15T06:29:09;94773.19;;;10.16;72.11
75166;BME280;63747;48.042;10.088;2023-05-15T06:32:10;94773.59;;;10.13;72.06
75166;BME280;63747;48.042;10.088;2023-05-15T06:35:10;94780.31;;;10.00;72.29
75166;BME280;63747;48.042;10.088;2023-05-15T06:38:11;94784.69;;;9.93;72.56
75166;BME280;63747;48.042;10.088;2023-05-15T06:41:11;94796.47;;;9.91;72.63
75166;BME280;63747;48.042;10.088;2023-05-15T06:44:12;94786.69;;;9.91;72.54
75166;BME280;63747;48.042;10.088;2023-05-15T06:47:12;94795.34;;;9.85;72.84
75166;BME280;63747;48.042;10.088;2023-05-15T06:50:13;94798.97;;;9.69;73.04
75166;BME280;63747;48.042;10.088;2023-05-15T06:53:13;94801.19;;;9.80;73.06
75166;BME280;63747;48.042;10.088;2023-05-15T06:56:16;94800.03;;;9.98;72.60
75166;BME280;63747;48.042;10.088;2023-05-15T06:59:16;94797.84;;;10.01;72.32
75166;BME280;63747;48.042;10.088;2023-05-15T07:02:17;94802.78;;;10.04;72.37
75166;BME280;63747;48.042;10.088;2023-05-15T07:05:18;94805.44;;;10.04;72.17
75166;BME280;63747;48.042;10.088;2023-05-15T07:08:18;94800.41;;;10.10;72.08
75166;BME280;63747;48.042;10.088;2023-05-15T07:11:19;94795.59;;;10.28;71.98
75166;BME280;63747;48.042;10.088;2023-05-15T07:14:19;94796.16;;;10.38;71.63
75166;BME280;63747;48.042;10.088;2023-05-15T07:17:20;94801.28;;;10.40;71.47
75166;BME280;63747;48.042;10.088;2023-05-15T07:20:20;94799.06;;;10.43;71.60
75166;BME280;63747;48.042;10.088;2023-05-15T07:23:21;94801.72;;;10.43;71.55
75166;BME280;63747;48.042;10.088;2023-05-15T07:26:22;94810.66;;;10.27;71.90
75166;BME280;63747;48.042;10.088;2023-05-15T07:29:22;94809.94;;;10.19;72.14
75166;BME280;63747;48.042;10.088;2023-05-15T07:32:23;94806.28;;;10.34;72.00
75166;BME280;63747;48.042;10.088;2023-05-15T07:35:24;94817.53;;;10.37;71.73
75166;BME280;63747;48.042;10.088;2023-05-15T07:38:24;94796.31;;;10.37;71.63
75166;BME280;63747;48.042;10.088;2023-05-15T07:41:25;94808.84;;;10.43;71.91
75166;BME280;63747;48.042;10.088;2023-05-15T07:44:25;94807.50;;;10.47;71.41
75166;BME280;63747;48.042;10.088;2023-05-15T07:47:26;94807.78;;;10.52;71.59
75166;BME280;63747;48.042;10.088;2023-05-15T07:50:26;94816.91;;;10.49;71.55
75166;BME280;63747;48.042;10.088;2023-05-15T07:53:27;94817.81;;;10.56;71.71
75166;BME280;63747;48.042;10.088;2023-05-15T07:56:27;94815.94;;;10.80;71.40
75166;BME280;63747;48.042;10.088;2023-05-15T07:59:28;94810.28;;;11.04;71.14
75166;BME280;63747;48.042;10.088;2023-05-15T08:02:29;94798.47;;;11.22;70.83
75166;BME280;63747;48.042;10.088;2023-05-15T08:05:30;94804.19;;;11.40;70.75
75166;BME280;63747;48.042;10.088;2023-05-15T08:08:30;94804.31;;;11.53;70.53
75166;BME280;63747;48.042;10.088;2023-05-15T08:11:31;94802.91;;;11.79;70.28
75166;BME280;63747;48.042;10.088;2023-05-15T08:14:31;94805.59;;;12.00;69.71
75166;BME280;63747;48.042;10.088;2023-05-15T08:17:32;94802.00;;;12.08;69.74
75166;BME280;63747;48.042;10.088;2023-05-15T08:20:33;94803.28;;;12.18;69.39
75166;BME280;63747;48.042;10.088;2023-05-15T08:23:33;94807.19;;;12.22;69.39
75166;BME280;63747;48.042;10.088;2023-05-15T08:26:34;94809.81;;;12.16;69.29
75166;BME280;63747;48.042;10.088;2023-05-15T08:29:35;94810.22;;;12.19;69.32
75166;BME280;63747;48.042;10.088;2023-05-15T08:32:35;94811.09;;;12.27;69.25
75166;BME280;63747;48.042;10.088;2023-05-15T08:35:36;94814.97;;;12.52;68.68
75166;BME280;63747;48.042;10.088;2023-05-15T08:38:36;94813.13;;;12.94;68.38
75166;BME280;63747;48.042;10.088;2023-05-15T08:41:39;94800.41;;;13.17;67.68
75166;BME280;63747;48.042;10.088;2023-05-15T08:44:42;94805.66;;;13.11;67.51
75166;BME280;63747;48.042;10.088;2023-05-15T08:47:43;94798.97;;;13.28;67.70
75166;BME280;63747;48.042;10.088;2023-05-15T08:50:44;94790.25;;;13.54;66.86
75166;BME280;63747;48.042;10.088;2023-05-15T08:53:45;94794.56;;;13.61;66.49
75166;BME280;63747;48.042;10.088;2023-05-15T08:56:46;94789.88;;;13.64;66.50
75166;BME280;63747;48.042;10.088;2023-05-15T08:59:47;94789.88;;;13.64;66.54
75166;BME280;63747;48.042;10.088;2023-05-15T09:02:47;94789.28;;;13.95;66.57
75166;BME280;63747;48.042;10.088;2023-05-15T09:05:48;94788.50;;;14.21;66.03
75166;BME280;63747;48.042;10.088;2023-05-15T09:08:52;94786.63;;;14.28;65.02
75166;BME280;63747;48.042;10.088;2023-05-15T09:11:54;94783.94;;;14.14;65.27
75166;BME280;63747;48.042;10.088;2023-05-15T09:18:08;94771.06;;;13.98;64.27
75166;BME280;63747;48.042;10.088;2023-05-15T09:24:38;94766.50;;;14.58;63.54
75166;BME280;63747;48.042;10.088;2023-05-15T09:27:39;94767.41;;;14.90;63.52
75166;BME280;63747;48.042;10.088;2023-05-15T09:30:42;94765.19;;;15.39;63.02
75166;BME280;63747;48.042;10.088;2023-05-15T09:33:42;94772.91;;;15.54;63.10
75166;BME280;63747;48.042;10.088;2023-05-15T09:36:43;94770.66;;;15.50;62.54
75166;BME280;63747;48.042;10.088;2023-05-15T09:39:44;94769.44;;;15.53;62.99
75166;BME280;63747;48.042;10.088;2023-05-15T09:42:50;94768.06;;;15.37;61.76
75166;BME280;63747;48.042;10.088;2023-05-15T09:45:50;94762.19;;;15.22;61.08
75166;BME280;63747;48.042;10.088;2023-05-15T09:48:54;94760.28;;;15.36;62.18
75166;BME280;63747;48.042;10.088;2023-05-15T09:51:58;94763.78;;;15.68;61.43
75166;BME280;63747;48.042;10.088;2023-05-15T09:54:59;94767.56;;;16.10;61.33
75166;BME280;63747;48.042;10.088;2023-05-15T09:58:20;94765.41;;;16.50;60.88
75166;BME280;63747;48.042;10.088;2023-05-15T10:01:21;94766.78;;;16.96;60.59
75166;BME280;63747;48.042;10.088;2023-05-15T10:04:22;94765.25;;;17.37;58.99
75166;BME280;63747;48.042;10.088;2023-05-15T10:07:29;94760.38;;;17.16;59.85
75166;BME280;63747;48.042;10.088;2023-05-15T10:10:30;94755.53;;;17.24;59.49
75166;BME280;63747;48.042;10.088;2023-05-15T10:13:31;94755.59;;;16.99;59.20
75166;BME280;63747;48.042;10.088;2023-05-15T10:16:34;94757.06;;;16.58;60.29
75166;BME280;63747;48.042;10.088;2023-05-15T10:19:35;94751.78;;;16.52;61.22
75166;BME280;63747;48.042;10.088;2023-05-15T10:22:36;94751.44;;;16.48;61.41
75166;BME280;63747;48.042;10.088;2023-05-15T10:25:40;94739.69;;;16.49;61.50
75166;BME280;63747;48.042;10.088;2023-05-15T10:28:41;94748.22;;;16.58;61.56
75166;BME280;63747;48.042;10.088;2023-05-15T10:31:43;94736.56;;;17.07;60.78
75166;BME280;63747;48.042;10.088;2023-05-15T10:34:43;94730.81;;;17.82;60.06
75166;BME280;63747;48.042;10.088;2023-05-15T10:37:46;94732.53;;;18.18;59.08
75166;BME280;63747;48.042;10.088;2023-05-15T10:40:46;94730.28;;;18.62;58.97
75166;BME280;63747;48.042;10.088;2023-05-15T10:43:48;94740.34;;;18.79;58.45
75166;BME280;63747;48.042;10.088;2023-05-15T10:46:48;94721.03;;;19.05;57.54
75166;BME280;63747;48.042;10.088;2023-05-15T10:49:49;94725.50;;;19.28;57.18
75166;BME280;63747;48.042;10.088;2023-05-15T10:52:50;94723.94;;;19.72;55.31
75166;BME280;63747;48.042;10.088;2023-05-15T10:55:51;94712.78;;;19.80;55.25
75166;BME280;63747;48.042;10.088;2023-05-15T10:58:52;94716.06;;;19.54;54.03
75166;BME280;63747;48.042;10.088;2023-05-15T11:01:53;94702.91;;;19.41;55.63
75166;BME280;63747;48.042;10.088;2023-05-15T11:04:58;94704.31;;;19.89;52.90
75166;BME280;63747;48.042;10.088;2023-05-15T11:14:37;94699.25;;;20.26;52.23
75166;BME280;63747;48.042;10.088;2023-05-15T11:17:38;94694.44;;;20.61;52.21
75166;BME280;63747;48.042;10.088;2023-05-15T11:24:03;94688.16;;;20.78;51.02
75166;BME280;63747;48.042;10.088;2023-05-15T11:27:04;94686.97;;;20.69;50.69
75166;BME280;63747;48.042;10.088;2023-05-15T11:33:11;94675.84;;;20.82;48.65
75166;BME280;63747;48.042;10.088;2023-05-15T11:36:12;94677.28;;;20.68;48.93
75166;BME280;63747;48.042;10.088;2023-05-15T11:39:14;94678.19;;;20.56;50.35
75166;BME280;63747;48.042;10.088;2023-05-15T11:42:15;94671.50;;;21.03;50.16
75166;BME280;63747;48.042;10.088;2023-05-15T11:45:16;94681.34;;;21.14;49.33
75166;BME280;63747;48.042;10.088;2023-05-15T11:48:17;94677.53;;;21.10;49.53
75166;BME280;63747;48.042;10.088;2023-05-15T11:51:22;94668.75;;;20.98;48.77
75166;BME280;63747;48.042;10.088;2023-05-15T11:54:23;94684.50;;;21.28;49.48
75166;BME280;63747;48.042;10.088;2023-05-15T11:57:24;94673.09;;;21.47;46.96
75166;BME280;63747;48.042;10.088;2023-05-15T12:00:24;94668.34;;;21.60;48.68
75166;BME280;63747;48.042;10.088;2023-05-15T12:03:26;94674.00;;;21.58;47.95
75166;BME280;63747;48.042;10.088;2023-05-15T12:06:27;94676.41;;;21.55;48.29
75166;BME280;63747;48.042;10.088;2023-05-15T12:09:27;94672.66;;;21.56;48.38
75166;BME280;63747;48.042;10.088;2023-05-15T12:12:28;94664.84;;;21.32;48.52
75166;BME280;63747;48.042;10.088;2023-05-15T12:15:29;94657.44;;;21.44;49.22
75166;BME280;63747;48.042;10.088;2023-05-15T12:18:30;94657.44;;;21.44;49.16
75166;BME280;63747;48.042;10.088;2023-05-15T12:21:31;94652.22;;;21.11;47.08
75166;BME280;63747;48.042;10.088;2023-05-15T12:24:32;94654.53;;;21.02;48.48
75166;BME280;63747;48.042;10.088;2023-05-15T12:27:34;94650.97;;;21.18;49.06
75166;BME280;63747;48.042;10.088;2023-05-15T12:30:35;94649.06;;;21.19;49.08
75166;BME280;63747;48.042;10.088;2023-05-15T12:33:36;94644.63;;;20.86;46.55
75166;BME280;63747;48.042;10.088;2023-05-15T12:36:36;94646.13;;;20.55;47.83
75166;BME280;63747;48.042;10.088;2023-05-15T12:39:52;94659.59;;;20.99;47.02
75166;BME280;63747;48.042;10.088;2023-05-15T12:42:53;94661.81;;;21.02;47.46
75166;BME280;63747;48.042;10.088;2023-05-15T12:45:55;94665.88;;;20.82;41.84
75166;BME280;63747;48.042;10.088;2023-05-15T12:48:58;94667.69;;;19.71;43.16
75166;BME280;63747;48.042;10.088;2023-05-15T12:52:06;94669.03;;;19.40;42.09
75166;BME280;63747;48.042;10.088;2023-05-15T12:55:06;94661.81;;;19.28;45.69
75166;BME280;63747;48.042;10.088;2023-05-15T12:58:09;94665.34;;;20.08;45.73
75166;BME280;63747;48.042;10.088;2023-05-15T13:01:10;94673.66;;;20.23;45.05
75166;BME280;63747;48.042;10.088;2023-05-15T13:04:10;94674.16;;;20.37;45.20
75166;BME280;63747;48.042;10.088;2023-05-15T13:07:13;94679.16;;;20.67;45.03
75166;BME280;63747;48.042;10.088;2023-05-15T13:10:15;94674.31;;;20.47;41.88
75166;BME280;63747;48.042;10.088;2023-05-15T13:13:16;94681.78;;;20.62;43.89
75166;BME280;63747;48.042;10.088;2023-05-15T13:16:19;94687.63;;;20.59;40.88
75166;BME280;63747;48.042;10.088;2023-05-15T13:19:19;94686.06;;;20.07;44.57
75166;BME280;63747;48.042;10.088;2023-05-15T13:22:20;94686.31;;;19.72;43.92
75166;BME280;63747;48.042;10.088;2023-05-15T13:25:20;94692.75;;;19.88;43.72
75166;BME280;63747;48.042;10.088;2023-05-15T13:28:21;94703.41;;;19.54;43.56
75166;BME280;63747;48.042;10.088;2023-05-15T13:31:21;94693.38;;;18.93;42.36
75166;BME280;63747;48.042;10.088;2023-05-15T13:34:22;94692.38;;;18.70;44.07
75166;BME280;63747;48.042;10.088;2023-05-15T13:37:22;94702.19;;;18.06;44.03
75166;BME280;63747;48.042;10.088;2023-05-15T13:40:24;94696.78;;;17.83;46.59
75166;BME280;63747;48.042;10.088;2023-05-15T13:43:26;94697.69;;;17.88;46.45
75166;BME280;63747;48.042;10.088;2023-05-15T13:46:26;94698.69;;;18.41;46.93
75166;BME280;63747;48.042;10.088;2023-05-15T13:49:27;94699.13;;;18.49;46.93
75166;BME280;63747;48.042;10.088;2023-05-15T13:52:27;94713.25;;;17.98;47.31
75166;BME280;63747;48.042;10.088;2023-05-15T13:55:28;94716.56;;;17.82;47.64
75166;BME280;63747;48.042;10.088;2023-05-15T13:58:28;94717.81;;;17.67;47.47
75166;BME280;63747;48.042;10.088;2023-05-15T14:01:29;94725.44;;;17.10;45.71
75166;BME280;63747;48.042;10.088;2023-05-15T14:04:29;94724.59;;;16.73;46.93
75166;BME280;63747;48.042;10.088;2023-05-15T14:07:30;94731.19;;;16.52;46.43
75166;BME280;63747;48.042;10.088;2023-05-15T14:10:31;94731.19;;;16.34;47.56
75166;BME280;63747;48.042;10.088;2023-05-15T14:13:32;94732.69;;;16.48;47.47
75166;BME280;63747;48.042;10.088;2023-05-15T14:16:32;94733.88;;;16.52;48.06
75166;BME280;63747;48.042;10.088;2023-05-15T14:19:33;94743.56;;;16.72;47.90
75166;BME280;63747;48.042;10.088;2023-05-15T14:22:33;94737.09;;;16.61;47.05
75166;BME280;63747;48.042;10.088;2023-05-15T14:25:34;94742.53;;;16.04;47.82
75166;BME280;63747;48.042;10.088;2023-05-15T14:28:34;94741.72;;;15.79;50.00
75166;BME280;63747;48.042;10.088;2023-05-15T14:31:35;94739.94;;;16.23;50.82
75166;BME280;63747;48.042;10.088;2023-05-15T14:34:36;94734.47;;;16.36;51.06
75166;BME280;63747;48.042;10.088;2023-05-15T14:37:36;94733.47;;;16.30;50.22
75166;BME280;63747;48.042;10.088;2023-05-15T14:40:37;94733.59;;;16.42;51.60
75166;BME280;63747;48.042;10.088;2023-05-15T14:43:37;94733.91;;;16.89;51.03
75166;BME280;63747;48.042;10.088;2023-05-15T14:46:40;94723.34;;;17.43;50.71
75166;BME280;63747;48.042;10.088;2023-05-15T14:49:40;94713.69;;;17.53;50.15
75166;BME280;63747;48.042;10.088;2023-05-15T14:52:41;94702.78;;;17.97;50.32
75166;BME280;63747;48.042;10.088;2023-05-15T14:55:42;94714.19;;;18.27;50.72
75166;BME280;63747;48.042;10.088;2023-05-15T14:58:42;94713.28;;;18.45;50.66
75166;BME280;63747;48.042;10.088;2023-05-15T15:01:43;94717.00;;;18.44;49.83
75166;BME280;63747;48.042;10.088;2023-05-15T15:04:45;94730.06;;;18.52;50.09
75166;BME280;63747;48.042;10.088;2023-05-15T15:08:19;94734.03;;;18.61;49.96
75166;BME280;63747;48.042;10.088;2023-05-15T15:11:12;94734.88;;;18.50;49.45
75166;BME280;63747;48.042;10.088;2023-05-15T15:14:13;94740.81;;;18.40;49.87
75166;BME280;63747;48.042;10.088;2023-05-15T15:17:13;94741.59;;;18.29;49.94
75166;BME280;63747;48.042;10.088;2023-05-15T15:20:15;94722.84;;;18.17;50.35
75166;BME280;63747;48.042;10.088;2023-05-15T15:23:15;94732.03;;;18.21;50.10
75166;BME280;63747;48.042;10.088;2023-05-15T15:26:16;94727.56;;;17.92;50.26
75166;BME280;63747;48.042;10.088;2023-05-15T15:29:16;94729.38;;;17.80;49.91
75166;BME280;63747;48.042;10.088;2023-05-15T15:32:17;94726.25;;;17.41;50.10
75166;BME280;63747;48.042;10.088;2023-05-15T15:35:17;94725.25;;;17.24;50.43
75166;BME280;63747;48.042;10.088;2023-05-15T15:38:18;94731.28;;;17.19;50.81
75166;BME280;63747;48.042;10.088;2023-05-15T15:41:18;94728.38;;;17.21;50.58
75166;BME280;63747;48.042;10.088;2023-05-15T15:44:22;94728.84;;;17.18;50.60
75166;BME280;63747;48.042;10.088;2023-05-15T15:47:23;94731.34;;;17.31;51.14
75166;BME280;63747;48.042;10.088;2023-05-15T15:50:24;94728.25;;;17.16;50.46
75166;BME280;63747;48.042;10.088;2023-05-15T15:53:24;94726.06;;;17.06;50.77
75166;BME280;63747;48.042;10.088;2023-05-15T15:56:25;94723.03;;;16.84;50.87
75166;BME280;63747;48.042;10.088;2023-05-15T15:59:25;94735.03;;;16.81;51.22
75166;BME280;63747;48.042;10.088;2023-05-15T16:02:26;94734.25;;;16.56;50.81
75166;BME280;63747;48.042;10.088;2023-05-15T16:05:27;94744.91;;;16.13;50.65
75166;BME280;63747;48.042;10.088;2023-05-15T16:08:27;94739.81;;;15.86;52.51
75166;BME280;63747;48.042;10.088;2023-05-15T16:11:28;94721.97;;;15.10;51.99
75166;BME280;63747;48.042;10.088;2023-05-15T16:14:28;94712.78;;;15.00;52.94
75166;BME280;63747;48.042;10.088;2023-05-15T16:17:30;94713.03;;;14.91;52.78
75166;BME280;63747;48.042;10.088;2023-05-15T16:20:31;94697.00;;;14.98;53.13